sensor_id;sensor_type;location;lat;lon;timestamp;temperature;humidity
52435;DHT22;38354;52.892;6.148;2024-03-02T00:00:11;8.30;99.90
52435;DHT22;38354;52.892;6.148;2024-03-02T00:02:42;8.30;99.90
52435;DHT22;38354;52.892;6.148;2024-03-02T00:05:13;8.30;99.90
52435;DHT22;38354;52.892;6.148;2024-03-02T00:07:45;8.40;99.90
52435;DHT22;38354;52.892;6.148;2024-03-02T00:10:16;8.30;99.90
52435;DHT22;38354;52.892;6.148;2024-03-02T00:12:47;8.30;99.90
52435;DHT22;38354;52.892;6.148;2024-03-02T00:18:02;8.30;99.90
52435;DHT22;38354;52.892;6.148;2024-03-02T00:20:29;8.40;99.90
52435;DHT22;38354;52.892;6.148;2024-03-02T00:23:06;8.40;99.90
52435;DHT22;38354;52.892;6.148;2024-03-02T00:25:42;8.40;99.90
52435;DHT22;38354;52.892;6.148;2024-03-02T00:28:22;8.40;99.90
52435;DHT22;38354;52.892;6.148;2024-03-02T05:01:07;8.40;99.90
52435;DHT22;38354;52.892;6.148;2024-03-02T05:03:32;8.40;99.90
52435;DHT22;38354;52.892;6.148;2024-03-02T05:06:00;8.30;99.90
52435;DHT22;38354;52.892;6.148;2024-03-02T05:08:25;8.30;99.90
52435;DHT22;38354;52.892;6.148;2024-03-02T05:10:51;8.20;99.90
52435;DHT22;38354;52.892;6.148;2024-03-02T05:13:17;8.20;99.90
52435;DHT22;38354;52.892;6.148;2024-03-02T05:15:43;8.20;99.90
52435;DHT22;38354;52.892;6.148;2024-03-02T05:18:09;8.10;99.90
52435;DHT22;38354;52.892;6.148;2024-03-02T05:20:34;8.00;99.90
52435;DHT22;38354;52.892;6.148;2024-03-02T05:23:00;7.90;99.90
52435;DHT22;38354;52.892;6.148;2024-03-02T05:25:25;7.90;99.90
52435;DHT22;38354;52.892;6.148;2024-03-02T05:27:51;7.80;99.90
52435;DHT22;38354;52.892;6.148;2024-03-02T05:30:17;7.80;99.90
52435;DHT22;38354;52.892;6.148;2024-03-02T05:32:42;7.80;99.90
52435;DHT22;38354;52.892;6.148;2024-03-02T05:35:08;7.70;99.90
52435;DHT22;38354;52.892;6.148;2024-03-02T05:37:36;7.70;99.90
52435;DHT22;38354;52.892;6.148;2024-03-02T05:40:01;7.60;99.90
52435;DHT22;38354;52.892;6.148;2024-03-02T05:42:28;7.60;99.90
52435;DHT22;38354;52.892;6.148;2024-03-02T05:44:54;7.50;99.90
52435;DHT22;38354;52.892;6.148;2024-03-02T05:47:19;7.60;99.90
52435;DHT22;38354;52.892;6.148;2024-03-02T05:49:45;7.50;99.90
52435;DHT22;38354;52.892;6.148;2024-03-02T05:52:11;7.50;99.90
52435;DHT22;38354;52.892;6.148;2024-03-02T05:54:37;7.50;99.90
52435;DHT22;38354;52.892;6.148;2024-03-02T05:57:04;7.50;99.90
52435;DHT22;38354;52.892;6.148;2024-03-02T05:59:42;7.50;99.90
52435;DHT22;38354;52.892;6.148;2024-03-02T06:02:09;7.40;99.90
52435;DHT22;38354;52.892;6.148;2024-03-02T06:04:34;7.40;99.90
52435;DHT22;38354;52.892;6.148;2024-03-02T06:07:00;7.40;99.90
52435;DHT22;38354;52.892;6.148;2024-03-02T06:09:25;7.40;99.90
52435;DHT22;38354;52.892;6.148;2024-03-02T06:11:51;7.40;99.90
52435;DHT22;38354;52.892;6.148;2024-03-02T06:14:17;7.40;99.90
52435;DHT22;38354;52.892;6.148;2024-03-02T06:16:43;7.40;99.90
52435;DHT22;38354;52.892;6.148;2024-03-02T06:19:08;7.30;99.90
52435;DHT22;38354;52.892;6.148;2024-03-02T06:21:34;7.30;99.90
52435;DHT22;38354;52.892;6.148;2024-03-02T06:23:59;7.20;99.90
52435;DHT22;38354;52.892;6.148;2024-03-02T06:26:26;7.20;99.90
52435;DHT22;38354;52.892;6.148;2024-03-02T06:28:53;7.00;99.90
52435;DHT22;38354;52.892;6.148;2024-03-02T06:31:19;7.10;99.90
52435;DHT22;38354;52.892;6.148;2024-03-02T06:33:44;7.00;99.90
52435;DHT22;38354;52.892;6.148;2024-03-02T06:36:10;7.00;99.90
52435;DHT22;38354;52.892;6.148;2024-03-02T06:38:37;7.00;99.90
52435;DHT22;38354;52.892;6.148;2024-03-02T06:41:03;6.90;99.90
52435;DHT22;38354;52.892;6.148;2024-03-02T06:43:28;6.90;99.90
52435;DHT22;38354;52.892;6.148;2024-03-02T06:45:54;6.90;99.90
52435;DHT22;38354;52.892;6.148;2024-03-02T06:48:20;6.90;99.90
52435;DHT22;38354;52.892;6.148;2024-03-02T06:50:49;6.90;99.90
52435;DHT22;38354;52.892;6.148;2024-03-02T06:53:16;6.90;99.90
52435;DHT22;38354;52.892;6.148;2024-03-02T06:55:45;6.90;99.90
52435;DHT22;38354;52.892;6.148;2024-03-02T06:58:12;6.90;99.90
52435;DHT22;38354;52.892;6.148;2024-03-02T07:00:38;6.90;99.90
52435;DHT22;38354;52.892;6.148;2024-03-02T07:03:04;6.90;99.90
52435;DHT22;38354;52.892;6.148;2024-03-02T07:05:29;6.80;99.90
52435;DHT22;38354;52.892;6.148;2024-03-02T07:07:55;6.80;99.90
52435;DHT22;38354;52.892;6.148;2024-03-02T07:10:21;6.80;99.90
52435;DHT22;38354;52.892;6.148;2024-03-02T07:12:46;6.80;99.90
52435;DHT22;38354;52.892;6.148;2024-03-02T07:15:12;6.80;99.90
52435;DHT22;38354;52.892;6.148;2024-03-02T07:17:55;6.80;99.90
52435;DHT22;38354;52.892;6.148;2024-03-02T07:20:20;6.80;99.90
52435;DHT22;38354;52.892;6.148;2024-03-02T07:22:46;6.90;99.90
52435;DHT22;38354;52.892;6.148;2024-03-02T07:25:12;6.80;99.90
52435;DHT22;38354;52.892;6.148;2024-03-02T07:27:38;6.90;99.90
52435;DHT22;38354;52.892;6.148;2024-03-02T07:30:05;6.90;99.90
52435;DHT22;38354;52.892;6.148;2024-03-02T07:32:31;6.90;99.90
52435;DHT22;38354;52.892;6.148;2024-03-02T07:34:56;7.00;99.90
52435;DHT22;38354;52.892;6.148;2024-03-02T07:37:23;7.00;99.90
52435;DHT22;38354;52.892;6.148;2024-03-02T07:39:49;7.10;99.90
52435;DHT22;38354;52.892;6.148;2024-03-02T07:42:15;7.10;99.90
52435;DHT22;38354;52.892;6.148;2024-03-02T07:44:41;7.30;99.90
52435;DHT22;38354;52.892;6.148;2024-03-02T07:47:07;7.30;99.90
52435;DHT22;38354;52.892;6.148;2024-03-02T07:49:33;7.30;99.90
52435;DHT22;38354;52.892;6.148;2024-03-02T07:51:58;7.30;99.90
52435;DHT22;38354;52.892;6.148;2024-03-02T07:54:24;7.30;99.90
52435;DHT22;38354;52.892;6.148;2024-03-02T07:56:50;7.30;99.90
52435;DHT22;38354;52.892;6.148;2024-03-02T07:59:16;7.30;99.90
52435;DHT22;38354;52.892;6.148;2024-03-02T08:01:41;7.40;99.90
52435;DHT22;38354;52.892;6.148;2024-03-02T08:04:07;7.40;99.90
52435;DHT22;38354;52.892;6.148;2024-03-02T08:06:33;7.40;99.90
52435;DHT22;38354;52.892;6.148;2024-03-02T08:08:59;7.40;99.90
52435;DHT22;38354;52.892;6.148;2024-03-02T08:11:25;7.50;99.90
52435;DHT22;38354;52.892;6.148;2024-03-02T08:13:52;7.50;99.90
52435;DHT22;38354;52.892;6.148;2024-03-02T08:16:21;7.50;99.90
52435;DHT22;38354;52.892;6.148;2024-03-02T08:18:48;7.60;99.90
52435;DHT22;38354;52.892;6.148;2024-03-02T08:21:14;7.60;99.90
52435;DHT22;38354;52.892;6.148;2024-03-02T08:23:41;7.60;99.90
52435;DHT22;38354;52.892;6.148;2024-03-02T08:26:08;7.70;99.90
52435;DHT22;38354;52.892;6.148;2024-03-02T08:28:34;7.70;99.90
52435;DHT22;38354;52.892;6.148;2024-03-02T08:31:00;7.80;99.90
52435;DHT22;38354;52.892;6.148;2024-03-02T08:33:25;7.80;99.90
52435;DHT22;38354;52.892;6.148;2024-03-02T08:35:51;7.90;99.90
52435;DHT22;38354;52.892;6.148;2024-03-02T08:38:17;8.00;99.90
52435;DHT22;38354;52.892;6.148;2024-03-02T08:40:43;8.00;99.90
52435;DHT22;38354;52.892;6.148;2024-03-02T08:43:09;8.10;99.90
52435;DHT22;38354;52.892;6.148;2024-03-02T08:45:35;8.20;99.90
52435;DHT22;38354;52.892;6.148;2024-03-02T08:48:01;8.30;99.90
52435;DHT22;38354;52.892;6.148;2024-03-02T08:50:26;8.40;99.90
52435;DHT22;38354;52.892;6.148;2024-03-02T08:52:52;8.50;99.90
52435;DHT22;38354;52.892;6.148;2024-03-02T08:55:18;8.60;99.90
52435;DHT22;38354;52.892;6.148;2024-03-02T08:57:43;8.60;99.90
52435;DHT22;38354;52.892;6.148;2024-03-02T09:00:09;8.60;99.90
52435;DHT22;38354;52.892;6.148;2024-03-02T09:02:35;8.60;99.90
52435;DHT22;38354;52.892;6.148;2024-03-02T09:05:01;8.60;99.90
52435;DHT22;38354;52.892;6.148;2024-03-02T09:07:27;8.60;99.90
52435;DHT22;38354;52.892;6.148;2024-03-02T09:09:52;8.60;99.90
52435;DHT22;38354;52.892;6.148;2024-03-02T09:12:19;8.60;99.90
52435;DHT22;38354;52.892;6.148;2024-03-02T09:14:45;8.80;99.90
52435;DHT22;38354;52.892;6.148;2024-03-02T09:17:11;9.10;99.90
52435;DHT22;38354;52.892;6.148;2024-03-02T09:19:37;9.20;99.90
52435;DHT22;38354;52.892;6.148;2024-03-02T09:22:03;9.40;99.90
52435;DHT22;38354;52.892;6.148;2024-03-02T09:24:33;9.50;99.90
52435;DHT22;38354;52.892;6.148;2024-03-02T09:26:59;9.70;99.90
52435;DHT22;38354;52.892;6.148;2024-03-02T09:29:25;10.10;99.90
52435;DHT22;38354;52.892;6.148;2024-03-02T09:31:51;10.50;99.90
52435;DHT22;38354;52.892;6.148;2024-03-02T09:34:17;11.00;99.90
52435;DHT22;38354;52.892;6.148;2024-03-02T09:36:43;11.00;99.90
52435;DHT22;38354;52.892;6.148;2024-03-02T09:39:09;11.30;99.90
52435;DHT22;38354;52.892;6.148;2024-03-02T09:41:38;11.40;99.90
52435;DHT22;38354;52.892;6.148;2024-03-02T09:44:05;11.80;99.90
52435;DHT22;38354;52.892;6.148;2024-03-02T09:46:31;11.70;99.90
52435;DHT22;38354;52.892;6.148;2024-03-02T09:48:56;11.70;99.90
52435;DHT22;38354;52.892;6.148;2024-03-02T09:51:23;11.30;99.90
52435;DHT22;38354;52.892;6.148;2024-03-02T09:53:49;11.10;99.90
52435;DHT22;38354;52.892;6.148;2024-03-02T09:56:15;11.10;99.90
52435;DHT22;38354;52.892;6.148;2024-03-02T09:58:44;11.00;99.90
52435;DHT22;38354;52.892;6.148;2024-03-02T10:01:09;10.70;99.90
52435;DHT22;38354;52.892;6.148;2024-03-02T10:03:37;10.60;99.90
52435;DHT22;38354;52.892;6.148;2024-03-02T10:06:22;10.60;99.90
52435;DHT22;38354;52.892;6.148;2024-03-02T10:08:48;10.60;99.90
52435;DHT22;38354;52.892;6.148;2024-03-02T10:11:34;10.60;99.90
52435;DHT22;38354;52.892;6.148;2024-03-02T10:14:08;10.70;99.90
52435;DHT22;38354;52.892;6.148;2024-03-02T10:16:39;10.80;99.90
52435;DHT22;38354;52.892;6.148;2024-03-02T10:21:47;10.90;99.90
52435;DHT22;38354;52.892;6.148;2024-03-02T10:24:17;11.00;99.90
52435;DHT22;38354;52.892;6.148;2024-03-02T10:26:43;11.00;99.90
52435;DHT22;38354;52.892;6.148;2024-03-02T10:29:12;11.00;99.90
52435;DHT22;38354;52.892;6.148;2024-03-02T10:31:42;11.00;99.90
52435;DHT22;38354;52.892;6.148;2024-03-02T10:34:09;11.10;99.90
52435;DHT22;38354;52.892;6.148;2024-03-02T10:36:36;11.20;99.90
52435;DHT22;38354;52.892;6.148;2024-03-02T10:39:07;11.40;99.90
52435;DHT22;38354;52.892;6.148;2024-03-02T10:41:34;11.40;99.90
52435;DHT22;38354;52.892;6.148;2024-03-02T10:44:07;11.60;99.90
52435;DHT22;38354;52.892;6.148;2024-03-02T10:46:37;11.70;99.90
52435;DHT22;38354;52.892;6.148;2024-03-02T10:49:04;11.90;99.90
52435;DHT22;38354;52.892;6.148;2024-03-02T10:51:31;11.80;99.90
52435;DHT22;38354;52.892;6.148;2024-03-02T10:53:58;11.80;99.90
52435;DHT22;38354;52.892;6.148;2024-03-02T10:56:50;12.00;99.90
52435;DHT22;38354;52.892;6.148;2024-03-02T10:59:34;12.20;99.90
52435;DHT22;38354;52.892;6.148;2024-03-02T11:02:02;12.40;99.90
52435;DHT22;38354;52.892;6.148;2024-03-02T11:04:30;12.30;99.90
52435;DHT22;38354;52.892;6.148;2024-03-02T11:07:02;12.40;99.90
52435;DHT22;38354;52.892;6.148;2024-03-02T11:09:30;12.40;99.90
52435;DHT22;38354;52.892;6.148;2024-03-02T11:12:32;12.50;99.90
52435;DHT22;38354;52.892;6.148;2024-03-02T11:14:51;12.60;99.90
52435;DHT22;38354;52.892;6.148;2024-03-02T11:17:19;12.70;99.90
52435;DHT22;38354;52.892;6.148;2024-03-02T11:19:46;12.80;99.90
52435;DHT22;38354;52.892;6.148;2024-03-02T11:22:12;12.80;99.90
52435;DHT22;38354;52.892;6.148;2024-03-02T11:24:38;12.90;99.90
52435;DHT22;38354;52.892;6.148;2024-03-02T11:27:05;13.00;99.90
52435;DHT22;38354;52.892;6.148;2024-03-02T11:32:16;13.10;99.90
52435;DHT22;38354;52.892;6.148;2024-03-02T11:34:45;13.00;99.90
52435;DHT22;38354;52.892;6.148;2024-03-02T11:37:19;12.90;99.90
52435;DHT22;38354;52.892;6.148;2024-03-02T11:39:51;13.10;99.90
52435;DHT22;38354;52.892;6.148;2024-03-02T11:42:17;13.20;99.90
52435;DHT22;38354;52.892;6.148;2024-03-02T11:44:46;13.40;99.90
52435;DHT22;38354;52.892;6.148;2024-03-02T11:47:13;13.30;99.90
52435;DHT22;38354;52.892;6.148;2024-03-02T11:49:50;13.40;99.90
52435;DHT22;38354;52.892;6.148;2024-03-02T11:52:20;13.50;99.90
52435;DHT22;38354;52.892;6.148;2024-03-02T11:54:48;13.50;99.90
52435;DHT22;38354;52.892;6.148;2024-03-02T11:57:21;13.60;99.90
52435;DHT22;38354;52.892;6.148;2024-03-02T11:59:50;13.60;99.90
52435;DHT22;38354;52.892;6.148;2024-03-02T12:02:17;13.60;99.90
52435;DHT22;38354;52.892;6.148;2024-03-02T12:04:44;13.80;99.90
52435;DHT22;38354;52.892;6.148;2024-03-02T12:07:11;13.60;99.90
52435;DHT22;38354;52.892;6.148;2024-03-02T12:09:37;13.50;99.90
52435;DHT22;38354;52.892;6.148;2024-03-02T12:14:30;13.80;99.90
52435;DHT22;38354;52.892;6.148;2024-03-02T12:16:56;13.90;99.90
52435;DHT22;38354;52.892;6.148;2024-03-02T12:19:24;14.10;99.90
52435;DHT22;38354;52.892;6.148;2024-03-02T12:21:50;14.20;99.90
52435;DHT22;38354;52.892;6.148;2024-03-02T12:24:16;14.30;99.90
52435;DHT22;38354;52.892;6.148;2024-03-02T12:26:42;14.40;99.90
52435;DHT22;38354;52.892;6.148;2024-03-02T12:29:08;14.50;99.90
52435;DHT22;38354;52.892;6.148;2024-03-02T12:31:34;14.60;99.90
52435;DHT22;38354;52.892;6.148;2024-03-02T12:34:02;14.70;99.90
52435;DHT22;38354;52.892;6.148;2024-03-02T12:36:28;15.00;99.90
52435;DHT22;38354;52.892;6.148;2024-03-02T12:38:53;15.30;99.90
52435;DHT22;38354;52.892;6.148;2024-03-02T12:41:20;15.10;99.90
52435;DHT22;38354;52.892;6.148;2024-03-02T12:43:46;15.20;99.90
52435;DHT22;38354;52.892;6.148;2024-03-02T12:46:12;15.20;99.90
52435;DHT22;38354;52.892;6.148;2024-03-02T12:48:37;15.30;99.90
52435;DHT22;38354;52.892;6.148;2024-03-02T12:51:06;15.30;99.90
52435;DHT22;38354;52.892;6.148;2024-03-02T12:53:32;15.30;99.90
52435;DHT22;38354;52.892;6.148;2024-03-02T12:55:58;15.50;99.90
52435;DHT22;38354;52.892;6.148;2024-03-02T12:58:24;15.70;99.90
52435;DHT22;38354;52.892;6.148;2024-03-02T13:00:49;15.80;99.90
52435;DHT22;38354;52.892;6.148;2024-03-02T13:03:18;15.80;99.90
52435;DHT22;38354;52.892;6.148;2024-03-02T13:05:48;15.70;99.90
52435;DHT22;38354;52.892;6.148;2024-03-02T13:08:15;15.80;99.90
52435;DHT22;38354;52.892;6.148;2024-03-02T13:10:41;15.80;99.90
52435;DHT22;38354;52.892;6.148;2024-03-02T13:13:07;15.70;99.90
52435;DHT22;38354;52.892;6.148;2024-03-02T13:15:33;15.60;99.90
52435;DHT22;38354;52.892;6.148;2024-03-02T13:18:00;15.70;99.90
52435;DHT22;38354;52.892;6.148;2024-03-02T13:20:33;15.80;99.90
52435;DHT22;38354;52.892;6.148;2024-03-02T13:22:58;15.70;99.90
52435;DHT22;38354;52.892;6.148;2024-03-02T13:25:24;15.60;99.90
52435;DHT22;38354;52.892;6.148;2024-03-02T13:27:49;15.70;99.90
52435;DHT22;38354;52.892;6.148;2024-03-02T13:30:16;15.70;99.90
52435;DHT22;38354;52.892;6.148;2024-03-02T13:32:42;15.70;99.90
52435;DHT22;38354;52.892;6.148;2024-03-02T13:35:07;15.50;99.90
52435;DHT22;38354;52.892;6.148;2024-03-02T13:37:33;15.40;99.90
52435;DHT22;38354;52.892;6.148;2024-03-02T13:39:58;15.50;99.90
52435;DHT22;38354;52.892;6.148;2024-03-02T13:42:24;15.50;99.90
52435;DHT22;38354;52.892;6.148;2024-03-02T13:44:50;15.50;99.90
52435;DHT22;38354;52.892;6.148;2024-03-02T13:47:17;15.20;99.90
52435;DHT22;38354;52.892;6.148;2024-03-02T13:49:42;14.90;99.90
52435;DHT22;38354;52.892;6.148;2024-03-02T13:52:12;14.60;99.90
52435;DHT22;38354;52.892;6.148;2024-03-02T13:54:46;14.50;99.90
52435;DHT22;38354;52.892;6.148;2024-03-02T13:57:13;14.50;99.90
52435;DHT22;38354;52.892;6.148;2024-03-02T13:59:39;14.40;99.90
52435;DHT22;38354;52.892;6.148;2024-03-02T14:02:05;14.30;99.90
52435;DHT22;38354;52.892;6.148;2024-03-02T14:04:33;14.20;99.90
52435;DHT22;38354;52.892;6.148;2024-03-02T14:06:59;14.20;99.90
52435;DHT22;38354;52.892;6.148;2024-03-02T14:09:25;14.20;99.90
52435;DHT22;38354;52.892;6.148;2024-03-02T14:11:51;14.10;99.90
52435;DHT22;38354;52.892;6.148;2024-03-02T14:14:17;14.20;99.90
52435;DHT22;38354;52.892;6.148;2024-03-02T14:16:43;14.20;99.90
52435;DHT22;38354;52.892;6.148;2024-03-02T14:19:10;14.30;99.90
52435;DHT22;38354;52.892;6.148;2024-03-02T14:21:37;14.40;99.90
52435;DHT22;38354;52.892;6.148;2024-03-02T14:24:03;14.50;99.90
52435;DHT22;38354;52.892;6.148;2024-03-02T14:26:29;14.60;99.90
52435;DHT22;38354;52.892;6.148;2024-03-02T14:28:55;14.70;99.90
52435;DHT22;38354;52.892;6.148;2024-03-02T14:31:21;14.70;99.90
52435;DHT22;38354;52.892;6.148;2024-03-02T14:33:46;14.70;99.90
52435;DHT22;38354;52.892;6.148;2024-03-02T14:36:12;14.60;99.90
52435;DHT22;38354;52.892;6.148;2024-03-02T14:38:38;14.70;99.90
52435;DHT22;38354;52.892;6.148;2024-03-02T14:41:04;14.90;99.90
52435;DHT22;38354;52.892;6.148;2024-03-02T14:43:30;15.00;99.90
52435;DHT22;38354;52.892;6.148;2024-03-02T14:45:56;15.00;99.90
52435;DHT22;38354;52.892;6.148;2024-03-02T14:48:22;15.10;99.90
52435;DHT22;38354;52.892;6.148;2024-03-02T14:50:48;15.20;99.90
52435;DHT22;38354;52.892;6.148;2024-03-02T14:53:14;15.20;99.90
52435;DHT22;38354;52.892;6.148;2024-03-02T14:55:40;15.20;99.90
52435;DHT22;38354;52.892;6.148;2024-03-02T14:58:05;15.10;99.90
52435;DHT22;38354;52.892;6.148;2024-03-02T15:00:31;15.00;99.90
52435;DHT22;38354;52.892;6.148;2024-03-02T15:02:56;14.90;99.90
52435;DHT22;38354;52.892;6.148;2024-03-02T15:05:22;14.80;99.90
52435;DHT22;38354;52.892;6.148;2024-03-02T15:07:48;14.80;99.90
52435;DHT22;38354;52.892;6.148;2024-03-02T15:10:13;14.90;99.90
52435;DHT22;38354;52.892;6.148;2024-03-02T15:12:39;15.00;99.90
52435;DHT22;38354;52.892;6.148;2024-03-02T15:15:05;15.20;99.90
52435;DHT22;38354;52.892;6.148;2024-03-02T15:17:31;15.20;99.90
52435;DHT22;38354;52.892;6.148;2024-03-02T15:19:56;15.20;99.90
52435;DHT22;38354;52.892;6.148;2024-03-02T15:22:22;15.10;99.90
52435;DHT22;38354;52.892;6.148;2024-03-02T15:24:48;15.00;99.90
52435;DHT22;38354;52.892;6.148;2024-03-02T15:27:13;15.00;99.90
52435;DHT22;38354;52.892;6.148;2024-03-02T15:29:39;15.10;99.90
52435;DHT22;38354;52.892;6.148;2024-03-02T15:32:05;15.20;99.90
52435;DHT22;38354;52.892;6.148;2024-03-02T15:34:32;15.30;99.90
52435;DHT22;38354;52.892;6.148;2024-03-02T15:36:58;15.30;99.90
52435;DHT22;38354;52.892;6.148;2024-03-02T15:39:23;15.30;99.90
52435;DHT22;38354;52.892;6.148;2024-03-02T15:41:49;15.40;99.90
52435;DHT22;38354;52.892;6.148;2024-03-02T15:44:15;15.50;99.90
52435;DHT22;38354;52.892;6.148;2024-03-02T15:46:41;15.50;99.90
52435;DHT22;38354;52.892;6.148;2024-03-02T15:49:07;15.40;99.90
52435;DHT22;38354;52.892;6.148;2024-03-02T15:51:34;15.20;99.90
52435;DHT22;38354;52.892;6.148;2024-03-02T15:54:02;15.00;99.90
52435;DHT22;38354;52.892;6.148;2024-03-02T15:56:28;14.80;99.90
52435;DHT22;38354;52.892;6.148;2024-03-02T15:58:54;14.70;99.90
52435;DHT22;38354;52.892;6.148;2024-03-02T16:01:19;14.70;99.90
52435;DHT22;38354;52.892;6.148;2024-03-02T16:03:46;14.80;99.90
52435;DHT22;38354;52.892;6.148;2024-03-02T16:06:11;14.90;99.90
52435;DHT22;38354;52.892;6.148;2024-03-02T16:08:37;15.20;99.90
52435;DHT22;38354;52.892;6.148;2024-03-02T16:11:03;15.40;99.90
52435;DHT22;38354;52.892;6.148;2024-03-02T16:13:29;15.50;99.90
52435;DHT22;38354;52.892;6.148;2024-03-02T16:15:56;15.70;99.90
52435;DHT22;38354;52.892;6.148;2024-03-02T16:18:21;15.70;99.90
52435;DHT22;38354;52.892;6.148;2024-03-02T16:20:47;15.60;99.90
52435;DHT22;38354;52.892;6.148;2024-03-02T16:23:13;15.60;99.90
52435;DHT22;38354;52.892;6.148;2024-03-02T16:25:38;15.50;99.90
52435;DHT22;38354;52.892;6.148;2024-03-02T16:28:07;15.30;99.90
52435;DHT22;38354;52.892;6.148;2024-03-02T16:30:34;15.20;99.90
52435;DHT22;38354;52.892;6.148;2024-03-02T16:33:00;15.10;99.90
52435;DHT22;38354;52.892;6.148;2024-03-02T16:35:25;14.80;99.90
52435;DHT22;38354;52.892;6.148;2024-03-02T16:37:51;14.60;99.90
52435;DHT22;38354;52.892;6.148;2024-03-02T16:40:16;14.30;99.90
52435;DHT22;38354;52.892;6.148;2024-03-02T16:42:42;14.10;99.90
52435;DHT22;38354;52.892;6.148;2024-03-02T16:45:08;13.90;99.90
52435;DHT22;38354;52.892;6.148;2024-03-02T16:47:34;13.70;99.90
52435;DHT22;38354;52.892;6.148;2024-03-02T16:50:00;13.50;99.90
52435;DHT22;38354;52.892;6.148;2024-03-02T16:52:26;13.40;99.90
52435;DHT22;38354;52.892;6.148;2024-03-02T16:54:53;13.20;99.90
52435;DHT22;38354;52.892;6.148;2024-03-02T16:57:19;13.10;99.90
52435;DHT22;38354;52.892;6.148;2024-03-02T16:59:45;13.00;99.90
52435;DHT22;38354;52.892;6.148;2024-03-02T17:02:12;12.90;99.90
52435;DHT22;38354;52.892;6.148;2024-03-02T17:04:38;12.70;99.90
52435;DHT22;38354;52.892;6.148;2024-03-02T17:07:04;12.70;99.90
52435;DHT22;38354;52.892;6.148;2024-03-02T17:09:29;12.50;99.90
52435;DHT22;38354;52.892;6.148;2024-03-02T17:11:55;12.40;99.90
52435;DHT22;38354;52.892;6.148;2024-03-02T17:14:21;12.30;99.90
52435;DHT22;38354;52.892;6.148;2024-03-02T17:16:46;12.20;99.90
52435;DHT22;38354;52.892;6.148;2024-03-02T17:19:12;12.10;99.90
52435;DHT22;38354;52.892;6.148;2024-03-02T17:21:37;12.00;99.90
52435;DHT22;38354;52.892;6.148;2024-03-02T17:24:03;11.90;99.90
52435;DHT22;38354;52.892;6.148;2024-03-02T17:26:29;11.80;99.90
52435;DHT22;38354;52.892;6.148;2024-03-02T17:28:55;11.70;99.90
52435;DHT22;38354;52.892;6.148;2024-03-02T17:31:21;11.60;99.90
52435;DHT22;38354;52.892;6.148;2024-03-02T17:33:47;11.50;99.90
52435;DHT22;38354;52.892;6.148;2024-03-02T17:36:13;11.50;99.90
52435;DHT22;38354;52.892;6.148;2024-03-02T17:38:40;11.40;99.90
52435;DHT22;38354;52.892;6.148;2024-03-02T17:41:06;11.30;99.90
52435;DHT22;38354;52.892;6.148;2024-03-02T17:43:33;11.20;99.90
52435;DHT22;38354;52.892;6.148;2024-03-02T17:45:59;11.20;99.90
52435;DHT22;38354;52.892;6.148;2024-03-02T17:48:25;11.10;99.90
52435;DHT22;38354;52.892;6.148;2024-03-02T17:50:50;11.10;99.90
52435;DHT22;38354;52.892;6.148;2024-03-02T17:53:17;11.00;99.90
52435;DHT22;38354;52.892;6.148;2024-03-02T17:55:43;10.90;99.90
52435;DHT22;38354;52.892;6.148;2024-03-02T17:58:09;10.80;99.90
52435;DHT22;38354;52.892;6.148;2024-03-02T18:00:35;10.80;99.90
52435;DHT22;38354;52.892;6.148;2024-03-02T18:03:00;10.80;99.90
52435;DHT22;38354;52.892;6.148;2024-03-02T18:05:26;10.70;99.90
52435;DHT22;38354;52.892;6.148;2024-03-02T18:07:52;10.70;99.90
52435;DHT22;38354;52.892;6.148;2024-03-02T18:10:18;10.70;99.90
52435;DHT22;38354;52.892;6.148;2024-03-02T18:12:43;10.60;99.90
52435;DHT22;38354;52.892;6.148;2024-03-02T18:15:09;10.70;99.90
52435;DHT22;38354;52.892;6.148;2024-03-02T18:17:36;10.60;99.90
52435;DHT22;38354;52.892;6.148;2024-03-02T18:20:02;10.60;99.90
52435;DHT22;38354;52.892;6.148;2024-03-02T18:22:30;10.60;99.90
52435;DHT22;38354;52.892;6.148;2024-03-02T18:24:56;10.50;99.90
52435;DHT22;38354;52.892;6.148;2024-03-02T18:27:22;10.50;99.90
52435;DHT22;38354;52.892;6.148;2024-03-02T18:29:47;10.40;99.90
52435;DHT22;38354;52.892;6.148;2024-03-02T18:32:13;10.40;99.90
52435;DHT22;38354;52.892;6.148;2024-03-02T18:34:39;10.40;99.90
52435;DHT22;38354;52.892;6.148;2024-03-02T18:37:04;10.40;99.90
52435;DHT22;38354;52.892;6.148;2024-03-02T18:39:30;10.40;99.90
52435;DHT22;38354;52.892;6.148;2024-03-02T18:41:56;10.40;99.90
52435;DHT22;38354;52.892;6.148;2024-03-02T18:44:22;10.40;99.90
52435;DHT22;38354;52.892;6.148;2024-03-02T18:46:49;10.30;99.90
52435;DHT22;38354;52.892;6.148;2024-03-02T18:49:14;10.30;99.90
52435;DHT22;38354;52.892;6.148;2024-03-02T18:51:40;10.20;99.90
52435;DHT22;38354;52.892;6.148;2024-03-02T18:54:08;10.20;99.90
52435;DHT22;38354;52.892;6.148;2024-03-02T18:56:33;10.20;99.90
52435;DHT22;38354;52.892;6.148;2024-03-02T18:58:59;10.20;99.90
52435;DHT22;38354;52.892;6.148;2024-03-02T19:01:25;10.10;99.90
52435;DHT22;38354;52.892;6.148;2024-03-02T19:03:50;10.10;99.90
52435;DHT22;38354;52.892;6.148;2024-03-02T19:06:17;10.10;99.90
52435;DHT22;38354;52.892;6.148;2024-03-02T19:08:43;10.10;99.90
52435;DHT22;38354;52.892;6.148;2024-03-02T19:11:12;10.00;99.90
52435;DHT22;38354;52.892;6.148;2024-03-02T19:13:39;10.00;99.90
52435;DHT22;38354;52.892;6.148;2024-03-02T19:16:05;10.00;99.90
52435;DHT22;38354;52.892;6.148;2024-03-02T19:18:31;10.00;99.90
52435;DHT22;38354;52.892;6.148;2024-03-02T19:20:56;10.00;99.90
52435;DHT22;38354;52.892;6.148;2024-03-02T19:23:22;10.00;99.90
52435;DHT22;38354;52.892;6.148;2024-03-02T19:25:48;10.10;99.90
52435;DHT22;38354;52.892;6.148;2024-03-02T19:28:13;10.20;99.90
52435;DHT22;38354;52.892;6.148;2024-03-02T19:30:39;10.20;99.90
52435;DHT22;38354;52.892;6.148;2024-03-02T19:33:05;10.30;99.90
52435;DHT22;38354;52.892;6.148;2024-03-02T19:35:30;10.30;99.90
52435;DHT22;38354;52.892;6.148;2024-03-02T19:37:56;10.50;99.90
52435;DHT22;38354;52.892;6.148;2024-03-02T19:40:22;10.50;99.90
52435;DHT22;38354;52.892;6.148;2024-03-02T19:42:47;10.50;99.90
52435;DHT22;38354;52.892;6.148;2024-03-02T19:45:13;10.60;99.90
52435;DHT22;38354;52.892;6.148;2024-03-02T19:47:39;10.70;99.90
52435;DHT22;38354;52.892;6.148;2024-03-02T19:50:05;10.60;99.90
52435;DHT22;38354;52.892;6.148;2024-03-02T19:52:31;10.60;99.90
52435;DHT22;38354;52.892;6.148;2024-03-02T19:54:56;10.70;99.90
52435;DHT22;38354;52.892;6.148;2024-03-02T19:57:22;10.70;99.90
52435;DHT22;38354;52.892;6.148;2024-03-02T19:59:49;10.70;99.90
52435;DHT22;38354;52.892;6.148;2024-03-02T20:02:14;10.70;99.90
52435;DHT22;38354;52.892;6.148;2024-03-02T20:04:40;10.70;99.90
52435;DHT22;38354;52.892;6.148;2024-03-02T20:07:06;10.70;99.90
52435;DHT22;38354;52.892;6.148;2024-03-02T20:09:33;10.70;99.90
52435;DHT22;38354;52.892;6.148;2024-03-02T20:11:58;10.80;99.90